Página principal
METAR-TAF:

METAR-TAF

Aeroportos :

Kotzebue, Alasca, Estados Unidos

latitude: 66-53-04N, longitude: 162-35-54W, altura: 3 m

Observação actual do tempo

O boletim foi feito há 1 hora e 11 minutos, às 18:53 UTC
Vento 8 kt de oeste
Temperatura 8°C
Humidade 87%
Pressão 1017 hPa
Visibilidade: 14.5 km
Nuvens fragmentadasa uma altura de 9000 ft

METAR: PAOT 201853Z 27008KT 9SM BKN090 08/06 A3004 RMK AO2 SLP173 T00830061

Hora: 12:04 (20:04 UTC)

Previsão

O boletim foi feito há 2 horas e 34 minutos, às 17:30 UTC
Previsão válida de 20 às 18 UTC a 21 às 18 UTC
Vento 8 kt de oeste
Visibilidade: 10 km
Encobertoa uma altura de 9000 ft

TAF: PAOT 201730Z 2018/2118 28008KT P6SM OVC090

Observações e previsões do tempo de mais de 4000 aeroportos (mensagens METAR e TAF).

As estações disponíveis são os pontos amarelos e vermelhos sobre o mapa.

Mova o rato sobre o mapa para ver o nome da estação.

Depois clique no ponto para visualizar as observações e previsões meteorológicas.

Para alterar o mapa : clique nos botões verdes com uma cruz preta para aumentar o zoom; no botão verde com uma pitada de zoom; ou nas setas verdes para mapas adjacentes.


METAR-TAF: